sensor_id;sensor_type;location;lat;lon;timestamp;temperature;humidity
831;DHT22;397;50.564;7.272;2022-10-30T00:01:02;16.10;99.90
831;DHT22;397;50.564;7.272;2022-10-30T00:03:29;16.10;99.90
831;DHT22;397;50.564;7.272;2022-10-30T00:05:57;16.10;99.90
831;DHT22;397;50.564;7.272;2022-10-30T00:08:25;16.10;99.90
831;DHT22;397;50.564;7.272;2022-10-30T00:10:53;16.10;99.90
831;DHT22;397;50.564;7.272;2022-10-30T00:13:20;16.10;99.90
831;DHT22;397;50.564;7.272;2022-10-30T00:15:50;16.00;99.90
831;DHT22;397;50.564;7.272;2022-10-30T00:18:18;16.00;99.90
831;DHT22;397;50.564;7.272;2022-10-30T00:20:46;16.00;99.90
831;DHT22;397;50.564;7.272;2022-10-30T00:23:14;16.00;99.90
831;DHT22;397;50.564;7.272;2022-10-30T00:25:41;15.90;99.90
831;DHT22;397;50.564;7.272;2022-10-30T00:28:09;16.00;99.90
831;DHT22;397;50.564;7.272;2022-10-30T00:30:37;15.90;99.90
831;DHT22;397;50.564;7.272;2022-10-30T00:33:05;15.90;99.90
831;DHT22;397;50.564;7.272;2022-10-30T00:35:32;15.80;99.90
831;DHT22;397;50.564;7.272;2022-10-30T00:38:00;15.80;99.90
831;DHT22;397;50.564;7.272;2022-10-30T00:40:27;15.80;99.90
831;DHT22;397;50.564;7.272;2022-10-30T00:42:55;15.80;99.90
831;DHT22;397;50.564;7.272;2022-10-30T00:45:22;15.80;99.90
831;DHT22;397;50.564;7.272;2022-10-30T00:47:54;15.80;99.90
831;DHT22;397;50.564;7.272;2022-10-30T00:50:30;15.70;99.90
831;DHT22;397;50.564;7.272;2022-10-30T00:53:06;15.60;99.90
831;DHT22;397;50.564;7.272;2022-10-30T00:55:35;15.40;99.90
831;DHT22;397;50.564;7.272;2022-10-30T00:58:05;15.40;99.90
831;DHT22;397;50.564;7.272;2022-10-30T01:00:33;15.50;99.90
831;DHT22;397;50.564;7.272;2022-10-30T01:03:02;15.50;99.90
831;DHT22;397;50.564;7.272;2022-10-30T01:05:31;15.40;99.90
831;DHT22;397;50.564;7.272;2022-10-30T01:07:59;15.50;99.90
831;DHT22;397;50.564;7.272;2022-10-30T01:10:27;15.40;99.90
831;DHT22;397;50.564;7.272;2022-10-30T01:12:55;15.50;99.90
831;DHT22;397;50.564;7.272;2022-10-30T01:15:27;15.50;99.90
831;DHT22;397;50.564;7.272;2022-10-30T01:18:24;15.30;99.90
831;DHT22;397;50.564;7.272;2022-10-30T01:21:13;15.30;99.90
831;DHT22;397;50.564;7.272;2022-10-30T01:23:59;15.30;99.90
831;DHT22;397;50.564;7.272;2022-10-30T01:32:17;15.10;99.90
831;DHT22;397;50.564;7.272;2022-10-30T01:37:27;15.00;99.90
831;DHT22;397;50.564;7.272;2022-10-30T01:39:50;15.00;99.90
831;DHT22;397;50.564;7.272;2022-10-30T01:42:41;15.00;99.90
831;DHT22;397;50.564;7.272;2022-10-30T01:45:07;15.00;99.90
831;DHT22;397;50.564;7.272;2022-10-30T01:50:31;14.90;99.90
831;DHT22;397;50.564;7.272;2022-10-30T01:53:08;14.90;99.90
831;DHT22;397;50.564;7.272;2022-10-30T01:58:26;15.00;99.90
831;DHT22;397;50.564;7.272;2022-10-30T02:00:57;15.00;99.90
831;DHT22;397;50.564;7.272;2022-10-30T02:03:27;15.10;99.90
831;DHT22;397;50.564;7.272;2022-10-30T02:05:55;15.00;99.90
831;DHT22;397;50.564;7.272;2022-10-30T02:08:22;15.00;99.90
831;DHT22;397;50.564;7.272;2022-10-30T02:10:51;15.00;99.90
831;DHT22;397;50.564;7.272;2022-10-30T02:13:19;15.00;99.90
831;DHT22;397;50.564;7.272;2022-10-30T02:15:48;15.00;99.90
831;DHT22;397;50.564;7.272;2022-10-30T02:18:16;15.00;99.90
831;DHT22;397;50.564;7.272;2022-10-30T02:20:43;14.90;99.90
831;DHT22;397;50.564;7.272;2022-10-30T02:23:11;14.90;99.90
831;DHT22;397;50.564;7.272;2022-10-30T02:25:40;14.90;99.90
831;DHT22;397;50.564;7.272;2022-10-30T02:28:08;14.90;99.90
831;DHT22;397;50.564;7.272;2022-10-30T02:30:35;14.90;99.90
831;DHT22;397;50.564;7.272;2022-10-30T02:33:03;14.90;99.90
831;DHT22;397;50.564;7.272;2022-10-30T02:35:31;14.90;99.90
831;DHT22;397;50.564;7.272;2022-10-30T02:38:01;14.90;99.90
831;DHT22;397;50.564;7.272;2022-10-30T02:40:28;14.80;99.90
831;DHT22;397;50.564;7.272;2022-10-30T02:42:56;14.90;99.90
831;DHT22;397;50.564;7.272;2022-10-30T02:45:23;14.90;99.90
831;DHT22;397;50.564;7.272;2022-10-30T02:47:51;14.90;99.90
831;DHT22;397;50.564;7.272;2022-10-30T02:50:18;14.70;99.90
831;DHT22;397;50.564;7.272;2022-10-30T02:52:46;14.70;99.90
831;DHT22;397;50.564;7.272;2022-10-30T02:55:13;14.60;99.90
831;DHT22;397;50.564;7.272;2022-10-30T02:57:41;14.60;99.90
831;DHT22;397;50.564;7.272;2022-10-30T03:00:09;14.50;99.90
831;DHT22;397;50.564;7.272;2022-10-30T03:02:37;14.50;99.90
831;DHT22;397;50.564;7.272;2022-10-30T03:05:05;14.40;99.90
831;DHT22;397;50.564;7.272;2022-10-30T03:07:32;14.30;99.90
831;DHT22;397;50.564;7.272;2022-10-30T03:10:00;14.30;99.90
831;DHT22;397;50.564;7.272;2022-10-30T03:12:27;14.30;99.90
831;DHT22;397;50.564;7.272;2022-10-30T03:14:55;14.30;99.90
831;DHT22;397;50.564;7.272;2022-10-30T03:17:22;14.30;99.90
831;DHT22;397;50.564;7.272;2022-10-30T03:19:50;14.20;99.90
831;DHT22;397;50.564;7.272;2022-10-30T03:22:17;14.10;99.90
831;DHT22;397;50.564;7.272;2022-10-30T03:24:45;14.00;99.90
831;DHT22;397;50.564;7.272;2022-10-30T03:27:32;14.00;99.90
831;DHT22;397;50.564;7.272;2022-10-30T03:29:59;14.00;99.90
831;DHT22;397;50.564;7.272;2022-10-30T03:32:27;13.90;99.90
831;DHT22;397;50.564;7.272;2022-10-30T03:34:54;13.90;99.90
831;DHT22;397;50.564;7.272;2022-10-30T03:37:22;13.90;99.90
831;DHT22;397;50.564;7.272;2022-10-30T03:39:49;13.90;99.90
831;DHT22;397;50.564;7.272;2022-10-30T03:42:17;14.00;99.90
831;DHT22;397;50.564;7.272;2022-10-30T03:44:44;14.00;99.90
831;DHT22;397;50.564;7.272;2022-10-30T03:47:12;13.90;99.90
831;DHT22;397;50.564;7.272;2022-10-30T03:49:39;13.80;99.90
831;DHT22;397;50.564;7.272;2022-10-30T03:52:07;13.90;99.90
831;DHT22;397;50.564;7.272;2022-10-30T03:54:34;13.90;99.90
831;DHT22;397;50.564;7.272;2022-10-30T03:57:01;13.80;99.90
831;DHT22;397;50.564;7.272;2022-10-30T03:59:29;13.80;99.90
831;DHT22;397;50.564;7.272;2022-10-30T04:01:56;13.70;99.90
831;DHT22;397;50.564;7.272;2022-10-30T04:04:24;13.60;99.90
831;DHT22;397;50.564;7.272;2022-10-30T04:06:51;13.70;99.90
831;DHT22;397;50.564;7.272;2022-10-30T04:09:19;13.70;99.90
831;DHT22;397;50.564;7.272;2022-10-30T04:11:46;13.70;99.90
831;DHT22;397;50.564;7.272;2022-10-30T04:14:14;13.60;99.90
831;DHT22;397;50.564;7.272;2022-10-30T04:16:41;13.60;99.90
831;DHT22;397;50.564;7.272;2022-10-30T04:19:09;13.60;99.90
831;DHT22;397;50.564;7.272;2022-10-30T04:21:36;13.60;99.90
831;DHT22;397;50.564;7.272;2022-10-30T04:24:04;13.60;99.90
831;DHT22;397;50.564;7.272;2022-10-30T04:26:32;13.60;99.90
831;DHT22;397;50.564;7.272;2022-10-30T04:28:59;13.60;99.90
831;DHT22;397;50.564;7.272;2022-10-30T04:31:27;13.50;99.90
831;DHT22;397;50.564;7.272;2022-10-30T04:33:54;13.50;99.90
831;DHT22;397;50.564;7.272;2022-10-30T04:36:22;13.50;99.90
831;DHT22;397;50.564;7.272;2022-10-30T04:38:51;13.50;99.90
831;DHT22;397;50.564;7.272;2022-10-30T04:41:18;13.40;99.90
831;DHT22;397;50.564;7.272;2022-10-30T04:43:49;13.40;99.90
831;DHT22;397;50.564;7.272;2022-10-30T04:46:17;13.40;99.90
831;DHT22;397;50.564;7.272;2022-10-30T04:48:45;13.40;99.90
831;DHT22;397;50.564;7.272;2022-10-30T04:51:12;13.30;99.90
831;DHT22;397;50.564;7.272;2022-10-30T04:53:40;13.30;99.90
831;DHT22;397;50.564;7.272;2022-10-30T04:56:07;13.30;99.90
831;DHT22;397;50.564;7.272;2022-10-30T04:58:35;13.30;99.90
831;DHT22;397;50.564;7.272;2022-10-30T05:01:04;13.10;99.90
831;DHT22;397;50.564;7.272;2022-10-30T05:03:33;13.10;99.90
831;DHT22;397;50.564;7.272;2022-10-30T05:08:42;13.10;99.90
831;DHT22;397;50.564;7.272;2022-10-30T05:11:10;13.10;99.90
831;DHT22;397;50.564;7.272;2022-10-30T05:13:37;13.10;99.90
831;DHT22;397;50.564;7.272;2022-10-30T05:16:05;13.10;99.90
831;DHT22;397;50.564;7.272;2022-10-30T05:18:33;13.00;99.90
831;DHT22;397;50.564;7.272;2022-10-30T05:21:01;13.10;99.90
831;DHT22;397;50.564;7.272;2022-10-30T05:23:28;13.10;99.90
831;DHT22;397;50.564;7.272;2022-10-30T05:25:56;13.10;99.90
831;DHT22;397;50.564;7.272;2022-10-30T05:28:25;12.90;99.90
831;DHT22;397;50.564;7.272;2022-10-30T05:30:53;12.90;99.90
831;DHT22;397;50.564;7.272;2022-10-30T05:33:21;12.90;99.90
831;DHT22;397;50.564;7.272;2022-10-30T05:35:48;12.90;99.90
831;DHT22;397;50.564;7.272;2022-10-30T05:38:16;12.90;99.90
831;DHT22;397;50.564;7.272;2022-10-30T05:40:45;12.90;99.90
831;DHT22;397;50.564;7.272;2022-10-30T05:43:13;12.90;99.90
831;DHT22;397;50.564;7.272;2022-10-30T05:45:40;12.80;99.90
831;DHT22;397;50.564;7.272;2022-10-30T05:48:08;12.80;99.90
831;DHT22;397;50.564;7.272;2022-10-30T05:50:35;12.70;99.90
831;DHT22;397;50.564;7.272;2022-10-30T05:53:04;12.80;99.90
831;DHT22;397;50.564;7.272;2022-10-30T05:55:32;12.70;99.90
831;DHT22;397;50.564;7.272;2022-10-30T05:58:04;12.60;99.90
831;DHT22;397;50.564;7.272;2022-10-30T06:00:34;12.70;99.90
831;DHT22;397;50.564;7.272;2022-10-30T06:03:04;12.60;99.90
831;DHT22;397;50.564;7.272;2022-10-30T06:05:34;12.60;99.90
831;DHT22;397;50.564;7.272;2022-10-30T06:08:03;12.50;99.90
831;DHT22;397;50.564;7.272;2022-10-30T06:10:31;12.60;99.90
831;DHT22;397;50.564;7.272;2022-10-30T06:13:01;12.50;99.90
831;DHT22;397;50.564;7.272;2022-10-30T06:15:29;12.50;99.90
831;DHT22;397;50.564;7.272;2022-10-30T06:17:57;12.50;99.90
831;DHT22;397;50.564;7.272;2022-10-30T06:20:27;12.50;99.90
831;DHT22;397;50.564;7.272;2022-10-30T06:23:00;12.60;99.90
831;DHT22;397;50.564;7.272;2022-10-30T06:25:29;12.60;99.90
831;DHT22;397;50.564;7.272;2022-10-30T06:27:57;12.50;99.90
831;DHT22;397;50.564;7.272;2022-10-30T06:30:26;12.60;99.90
831;DHT22;397;50.564;7.272;2022-10-30T06:32:57;12.50;99.90
831;DHT22;397;50.564;7.272;2022-10-30T06:35:25;12.50;99.90
831;DHT22;397;50.564;7.272;2022-10-30T06:37:53;12.60;99.90
831;DHT22;397;50.564;7.272;2022-10-30T06:40:22;12.50;99.90
831;DHT22;397;50.564;7.272;2022-10-30T06:42:51;12.40;99.90
831;DHT22;397;50.564;7.272;2022-10-30T06:45:21;12.40;99.90
831;DHT22;397;50.564;7.272;2022-10-30T06:47:49;12.50;99.90
831;DHT22;397;50.564;7.272;2022-10-30T06:50:19;12.60;99.90
831;DHT22;397;50.564;7.272;2022-10-30T06:52:47;12.70;99.90
831;DHT22;397;50.564;7.272;2022-10-30T06:55:15;12.70;99.90
831;DHT22;397;50.564;7.272;2022-10-30T06:57:43;12.60;99.90
831;DHT22;397;50.564;7.272;2022-10-30T07:00:11;12.60;99.90
831;DHT22;397;50.564;7.272;2022-10-30T07:02:39;12.70;99.90
831;DHT22;397;50.564;7.272;2022-10-30T07:05:07;12.90;99.90
831;DHT22;397;50.564;7.272;2022-10-30T07:07:34;12.90;99.90
831;DHT22;397;50.564;7.272;2022-10-30T07:10:02;13.00;99.90
831;DHT22;397;50.564;7.272;2022-10-30T07:12:29;13.10;99.90
831;DHT22;397;50.564;7.272;2022-10-30T07:14:57;13.00;99.90
831;DHT22;397;50.564;7.272;2022-10-30T07:17:24;13.10;99.90
831;DHT22;397;50.564;7.272;2022-10-30T07:19:52;13.20;99.90
831;DHT22;397;50.564;7.272;2022-10-30T07:22:19;13.40;99.90
831;DHT22;397;50.564;7.272;2022-10-30T07:24:47;13.40;99.90
831;DHT22;397;50.564;7.272;2022-10-30T07:27:14;13.40;99.90
831;DHT22;397;50.564;7.272;2022-10-30T07:29:42;13.50;99.90
831;DHT22;397;50.564;7.272;2022-10-30T07:32:11;13.70;99.90
831;DHT22;397;50.564;7.272;2022-10-30T07:34:39;13.90;99.90
831;DHT22;397;50.564;7.272;2022-10-30T07:37:06;13.90;99.90
831;DHT22;397;50.564;7.272;2022-10-30T07:39:34;14.00;99.90
831;DHT22;397;50.564;7.272;2022-10-30T07:42:02;14.20;99.90
831;DHT22;397;50.564;7.272;2022-10-30T07:44:29;14.40;99.90
831;DHT22;397;50.564;7.272;2022-10-30T07:46:56;14.50;99.90
831;DHT22;397;50.564;7.272;2022-10-30T07:49:24;14.50;99.90
831;DHT22;397;50.564;7.272;2022-10-30T07:51:51;14.60;99.90
831;DHT22;397;50.564;7.272;2022-10-30T07:54:19;14.60;99.90
831;DHT22;397;50.564;7.272;2022-10-30T07:56:46;14.80;99.90
831;DHT22;397;50.564;7.272;2022-10-30T07:59:14;14.80;99.90
831;DHT22;397;50.564;7.272;2022-10-30T08:01:41;14.90;99.90
831;DHT22;397;50.564;7.272;2022-10-30T08:04:09;14.80;99.90
831;DHT22;397;50.564;7.272;2022-10-30T08:06:39;15.10;99.90
831;DHT22;397;50.564;7.272;2022-10-30T08:09:06;15.20;99.90
831;DHT22;397;50.564;7.272;2022-10-30T08:11:34;15.30;99.90
831;DHT22;397;50.564;7.272;2022-10-30T08:14:02;15.40;99.90
831;DHT22;397;50.564;7.272;2022-10-30T08:16:29;15.50;99.90
831;DHT22;397;50.564;7.272;2022-10-30T08:18:57;15.50;99.90
831;DHT22;397;50.564;7.272;2022-10-30T08:21:24;15.60;99.90
831;DHT22;397;50.564;7.272;2022-10-30T08:23:52;15.60;99.90
831;DHT22;397;50.564;7.272;2022-10-30T08:26:19;15.70;99.90
831;DHT22;397;50.564;7.272;2022-10-30T08:28:47;15.80;99.90
831;DHT22;397;50.564;7.272;2022-10-30T08:31:14;15.80;99.90
831;DHT22;397;50.564;7.272;2022-10-30T08:33:42;15.90;99.90
831;DHT22;397;50.564;7.272;2022-10-30T08:36:09;15.90;99.90
831;DHT22;397;50.564;7.272;2022-10-30T08:38:37;16.10;99.90
831;DHT22;397;50.564;7.272;2022-10-30T08:41:04;16.30;99.90
831;DHT22;397;50.564;7.272;2022-10-30T08:43:32;16.30;99.90
831;DHT22;397;50.564;7.272;2022-10-30T08:46:00;16.30;99.90
831;DHT22;397;50.564;7.272;2022-10-30T08:48:28;16.30;99.90
831;DHT22;397;50.564;7.272;2022-10-30T08:50:58;16.40;99.90
831;DHT22;397;50.564;7.272;2022-10-30T08:53:29;16.50;99.90
831;DHT22;397;50.564;7.272;2022-10-30T08:55:56;16.50;99.90
831;DHT22;397;50.564;7.272;2022-10-30T08:58:43;16.60;99.90
831;DHT22;397;50.564;7.272;2022-10-30T09:01:11;16.60;99.90
831;DHT22;397;50.564;7.272;2022-10-30T09:03:38;16.70;99.90
831;DHT22;397;50.564;7.272;2022-10-30T09:06:06;16.80;99.90
831;DHT22;397;50.564;7.272;2022-10-30T09:08:33;16.80;99.90
831;DHT22;397;50.564;7.272;2022-10-30T09:11:01;16.90;99.90
831;DHT22;397;50.564;7.272;2022-10-30T09:13:29;16.90;99.90
831;DHT22;397;50.564;7.272;2022-10-30T09:16:00;17.10;99.90
831;DHT22;397;50.564;7.272;2022-10-30T09:18:28;17.00;99.90
831;DHT22;397;50.564;7.272;2022-10-30T09:20:56;17.00;99.90
831;DHT22;397;50.564;7.272;2022-10-30T09:23:23;17.10;99.90
831;DHT22;397;50.564;7.272;2022-10-30T09:25:51;17.20;99.90
831;DHT22;397;50.564;7.272;2022-10-30T09:28:18;17.20;99.90
831;DHT22;397;50.564;7.272;2022-10-30T09:30:46;17.20;99.90
831;DHT22;397;50.564;7.272;2022-10-30T09:33:15;17.20;99.90
831;DHT22;397;50.564;7.272;2022-10-30T09:35:42;17.30;99.90
831;DHT22;397;50.564;7.272;2022-10-30T09:38:10;17.20;99.90
831;DHT22;397;50.564;7.272;2022-10-30T09:46:28;17.30;99.90
831;DHT22;397;50.564;7.272;2022-10-30T10:00:19;17.40;99.90
831;DHT22;397;50.564;7.272;2022-10-30T10:02:57;17.50;99.90
831;DHT22;397;50.564;7.272;2022-10-30T10:08:14;17.60;99.90
831;DHT22;397;50.564;7.272;2022-10-30T10:10:51;17.60;99.90
831;DHT22;397;50.564;7.272;2022-10-30T10:16:22;17.70;99.90
831;DHT22;397;50.564;7.272;2022-10-30T10:19:06;17.80;99.90
831;DHT22;397;50.564;7.272;2022-10-30T10:21:24;17.80;99.90
831;DHT22;397;50.564;7.272;2022-10-30T10:23:54;17.90;99.90
831;DHT22;397;50.564;7.272;2022-10-30T10:26:49;17.90;99.90
831;DHT22;397;50.564;7.272;2022-10-30T10:29:39;18.00;99.90
831;DHT22;397;50.564;7.272;2022-10-30T10:32:30;18.00;99.90
831;DHT22;397;50.564;7.272;2022-10-30T10:37:48;18.20;99.90
831;DHT22;397;50.564;7.272;2022-10-30T10:43:23;18.10;99.90
831;DHT22;397;50.564;7.272;2022-10-30T10:51:17;18.20;99.90
831;DHT22;397;50.564;7.272;2022-10-30T10:53:56;18.30;99.90
831;DHT22;397;50.564;7.272;2022-10-30T10:56:36;18.40;99.90
831;DHT22;397;50.564;7.272;2022-10-30T10:58:56;18.40;99.90
831;DHT22;397;50.564;7.272;2022-10-30T11:01:39;18.50;99.90
831;DHT22;397;50.564;7.272;2022-10-30T11:04:18;18.60;99.90
831;DHT22;397;50.564;7.272;2022-10-30T11:06:50;18.70;99.90
831;DHT22;397;50.564;7.272;2022-10-30T11:09:21;18.70;99.90
831;DHT22;397;50.564;7.272;2022-10-30T11:11:50;18.80;99.90
831;DHT22;397;50.564;7.272;2022-10-30T11:17:17;18.90;99.90
831;DHT22;397;50.564;7.272;2022-10-30T11:19:43;18.90;99.90
831;DHT22;397;50.564;7.272;2022-10-30T11:22:35;19.10;99.90
831;DHT22;397;50.564;7.272;2022-10-30T11:25:22;19.20;99.90
831;DHT22;397;50.564;7.272;2022-10-30T11:28:01;19.30;99.90
831;DHT22;397;50.564;7.272;2022-10-30T11:30:30;19.30;99.90
831;DHT22;397;50.564;7.272;2022-10-30T11:32:58;19.20;99.90
831;DHT22;397;50.564;7.272;2022-10-30T11:35:27;19.10;99.90
831;DHT22;397;50.564;7.272;2022-10-30T11:38:12;19.00;99.90
831;DHT22;397;50.564;7.272;2022-10-30T11:40:45;19.00;99.90
831;DHT22;397;50.564;7.272;2022-10-30T11:43:16;19.10;99.90
831;DHT22;397;50.564;7.272;2022-10-30T11:45:44;19.10;99.90
831;DHT22;397;50.564;7.272;2022-10-30T11:48:21;19.10;99.90
831;DHT22;397;50.564;7.272;2022-10-30T11:50:49;19.20;99.90
831;DHT22;397;50.564;7.272;2022-10-30T11:53:35;19.30;99.90
831;DHT22;397;50.564;7.272;2022-10-30T11:56:14;19.40;99.90
831;DHT22;397;50.564;7.272;2022-10-30T11:58:44;19.50;99.90
831;DHT22;397;50.564;7.272;2022-10-30T12:01:31;19.60;99.90
831;DHT22;397;50.564;7.272;2022-10-30T12:06:42;19.70;99.90
831;DHT22;397;50.564;7.272;2022-10-30T12:09:20;19.80;99.90
831;DHT22;397;50.564;7.272;2022-10-30T12:11:49;19.90;99.90
831;DHT22;397;50.564;7.272;2022-10-30T12:14:19;20.00;99.90
831;DHT22;397;50.564;7.272;2022-10-30T12:16:51;20.00;99.90
831;DHT22;397;50.564;7.272;2022-10-30T12:19:21;20.00;99.90
831;DHT22;397;50.564;7.272;2022-10-30T12:21:51;20.10;99.90
831;DHT22;397;50.564;7.272;2022-10-30T12:24:25;20.10;99.90
831;DHT22;397;50.564;7.272;2022-10-30T12:27:01;20.10;99.90
831;DHT22;397;50.564;7.272;2022-10-30T12:30:01;20.00;99.90
831;DHT22;397;50.564;7.272;2022-10-30T12:32:46;20.00;99.90
831;DHT22;397;50.564;7.272;2022-10-30T12:35:15;20.00;99.90
831;DHT22;397;50.564;7.272;2022-10-30T12:37:40;20.00;99.90
831;DHT22;397;50.564;7.272;2022-10-30T12:40:23;20.00;99.90
831;DHT22;397;50.564;7.272;2022-10-30T12:43:11;20.00;99.90
831;DHT22;397;50.564;7.272;2022-10-30T12:45:45;19.90;99.90
831;DHT22;397;50.564;7.272;2022-10-30T12:48:29;20.00;99.90
831;DHT22;397;50.564;7.272;2022-10-30T12:51:13;20.00;99.90
831;DHT22;397;50.564;7.272;2022-10-30T12:56:40;19.90;99.90
831;DHT22;397;50.564;7.272;2022-10-30T12:59:24;19.90;99.90
831;DHT22;397;50.564;7.272;2022-10-30T13:01:52;19.90;99.90
831;DHT22;397;50.564;7.272;2022-10-30T13:04:22;19.90;99.90
831;DHT22;397;50.564;7.272;2022-10-30T13:06:57;19.90;99.90
831;DHT22;397;50.564;7.272;2022-10-30T13:09:26;19.90;99.90
831;DHT22;397;50.564;7.272;2022-10-30T13:12:03;19.90;99.90
831;DHT22;397;50.564;7.272;2022-10-30T13:14:41;20.00;99.90
831;DHT22;397;50.564;7.272;2022-10-30T13:17:12;19.90;99.90
831;DHT22;397;50.564;7.272;2022-10-30T13:19:46;20.00;99.90
831;DHT22;397;50.564;7.272;2022-10-30T13:22:34;20.00;99.90
831;DHT22;397;50.564;7.272;2022-10-30T13:25:23;20.00;99.90
831;DHT22;397;50.564;7.272;2022-10-30T13:27:55;19.90;99.90
831;DHT22;397;50.564;7.272;2022-10-30T13:30:26;19.90;99.90
831;DHT22;397;50.564;7.272;2022-10-30T13:33:26;20.00;99.90
831;DHT22;397;50.564;7.272;2022-10-30T13:39:00;20.00;99.90
831;DHT22;397;50.564;7.272;2022-10-30T13:49:47;19.90;99.90
831;DHT22;397;50.564;7.272;2022-10-30T13:52:14;20.00;99.90
831;DHT22;397;50.564;7.272;2022-10-30T13:54:57;20.00;99.90
831;DHT22;397;50.564;7.272;2022-10-30T13:57:37;19.90;99.90
831;DHT22;397;50.564;7.272;2022-10-30T14:02:46;20.10;99.90
831;DHT22;397;50.564;7.272;2022-10-30T14:07:52;20.10;99.90
831;DHT22;397;50.564;7.272;2022-10-30T14:15:45;20.00;99.90
831;DHT22;397;50.564;7.272;2022-10-30T14:20:51;20.00;99.90
831;DHT22;397;50.564;7.272;2022-10-30T14:23:28;19.90;99.90
831;DHT22;397;50.564;7.272;2022-10-30T14:28:34;19.80;99.90
831;DHT22;397;50.564;7.272;2022-10-30T14:31:31;19.80;99.90
831;DHT22;397;50.564;7.272;2022-10-30T14:33:49;19.80;99.90
831;DHT22;397;50.564;7.272;2022-10-30T14:36:46;19.80;99.90
831;DHT22;397;50.564;7.272;2022-10-30T14:41:52;19.70;99.90
831;DHT22;397;50.564;7.272;2022-10-30T14:44:26;19.60;99.90
831;DHT22;397;50.564;7.272;2022-10-30T14:48:10;19.60;99.90
831;DHT22;397;50.564;7.272;2022-10-30T14:50:12;19.50;99.90
831;DHT22;397;50.564;7.272;2022-10-30T14:55:32;19.40;99.90
831;DHT22;397;50.564;7.272;2022-10-30T15:00:37;19.50;99.90
831;DHT22;397;50.564;7.272;2022-10-30T15:03:29;19.40;99.90
831;DHT22;397;50.564;7.272;2022-10-30T15:11:38;19.20;99.90
831;DHT22;397;50.564;7.272;2022-10-30T15:14:28;19.20;99.90
831;DHT22;397;50.564;7.272;2022-10-30T15:16:55;19.20;99.90
831;DHT22;397;50.564;7.272;2022-10-30T15:19:23;19.20;99.90
831;DHT22;397;50.564;7.272;2022-10-30T15:21:53;19.20;99.90
831;DHT22;397;50.564;7.272;2022-10-30T15:24:23;19.20;99.90
831;DHT22;397;50.564;7.272;2022-10-30T15:26:57;19.20;99.90
831;DHT22;397;50.564;7.272;2022-10-30T15:29:33;19.20;99.90
831;DHT22;397;50.564;7.272;2022-10-30T15:32:14;19.20;99.90
831;DHT22;397;50.564;7.272;2022-10-30T15:35:02;19.00;99.90
831;DHT22;397;50.564;7.272;2022-10-30T15:37:31;19.00;99.90
831;DHT22;397;50.564;7.272;2022-10-30T15:40:15;18.80;99.90
831;DHT22;397;50.564;7.272;2022-10-30T15:42:44;18.70;99.90
831;DHT22;397;50.564;7.272;2022-10-30T15:45:24;18.50;99.90
831;DHT22;397;50.564;7.272;2022-10-30T15:47:57;18.50;99.90
831;DHT22;397;50.564;7.272;2022-10-30T15:50:25;18.30;99.90
831;DHT22;397;50.564;7.272;2022-10-30T15:52:54;18.20;99.90
831;DHT22;397;50.564;7.272;2022-10-30T15:55:25;18.10;99.90
831;DHT22;397;50.564;7.272;2022-10-30T15:57:54;18.10;99.90
831;DHT22;397;50.564;7.272;2022-10-30T16:05:39;18.00;99.90
831;DHT22;397;50.564;7.272;2022-10-30T16:08:21;17.90;99.90
831;DHT22;397;50.564;7.272;2022-10-30T16:10:52;17.90;99.90
831;DHT22;397;50.564;7.272;2022-10-30T16:13:27;17.90;99.90
831;DHT22;397;50.564;7.272;2022-10-30T16:15:53;17.80;99.90
831;DHT22;397;50.564;7.272;2022-10-30T16:18:31;17.70;99.90
831;DHT22;397;50.564;7.272;2022-10-30T16:21:04;17.60;99.90
831;DHT22;397;50.564;7.272;2022-10-30T16:23:45;17.60;99.90
831;DHT22;397;50.564;7.272;2022-10-30T16:28:55;17.50;99.90
831;DHT22;397;50.564;7.272;2022-10-30T16:31:23;17.50;99.90
831;DHT22;397;50.564;7.272;2022-10-30T16:33:52;17.40;99.90
831;DHT22;397;50.564;7.272;2022-10-30T16:36:20;17.40;99.90
831;DHT22;397;50.564;7.272;2022-10-30T16:38:48;17.40;99.90
831;DHT22;397;50.564;7.272;2022-10-30T16:41:17;17.30;99.90
831;DHT22;397;50.564;7.272;2022-10-30T16:46:34;17.10;99.90
831;DHT22;397;50.564;7.272;2022-10-30T16:49:05;17.10;99.90
831;DHT22;397;50.564;7.272;2022-10-30T16:51:33;17.00;99.90
831;DHT22;397;50.564;7.272;2022-10-30T16:54:03;16.90;99.90
831;DHT22;397;50.564;7.272;2022-10-30T16:56:31;16.90;99.90
831;DHT22;397;50.564;7.272;2022-10-30T16:59:11;16.80;99.90
831;DHT22;397;50.564;7.272;2022-10-30T17:01:36;16.70;99.90
831;DHT22;397;50.564;7.272;2022-10-30T17:04:04;16.60;99.90
831;DHT22;397;50.564;7.272;2022-10-30T17:06:42;16.60;99.90
831;DHT22;397;50.564;7.272;2022-10-30T17:09:27;16.60;99.90
831;DHT22;397;50.564;7.272;2022-10-30T17:12:09;16.50;99.90
831;DHT22;397;50.564;7.272;2022-10-30T17:14:50;16.40;99.90
831;DHT22;397;50.564;7.272;2022-10-30T17:17:35;16.40;99.90
831;DHT22;397;50.564;7.272;2022-10-30T17:22:50;16.40;99.90
831;DHT22;397;50.564;7.272;2022-10-30T17:25:37;16.30;99.90
831;DHT22;397;50.564;7.272;2022-10-30T17:28:01;16.30;99.90
831;DHT22;397;50.564;7.272;2022-10-30T17:30:39;16.30;99.90
831;DHT22;397;50.564;7.272;2022-10-30T17:33:25;16.30;99.90
831;DHT22;397;50.564;7.272;2022-10-30T17:35:53;16.20;99.90
831;DHT22;397;50.564;7.272;2022-10-30T17:38:21;16.20;99.90
831;DHT22;397;50.564;7.272;2022-10-30T17:40:49;16.00;99.90
831;DHT22;397;50.564;7.272;2022-10-30T17:43:16;15.90;99.90
831;DHT22;397;50.564;7.272;2022-10-30T17:45:44;15.90;99.90
831;DHT22;397;50.564;7.272;2022-10-30T17:48:13;15.90;99.90
831;DHT22;397;50.564;7.272;2022-10-30T17:50:42;15.90;99.90
831;DHT22;397;50.564;7.272;2022-10-30T17:53:12;15.90;99.90
831;DHT22;397;50.564;7.272;2022-10-30T17:55:40;15.90;99.90
831;DHT22;397;50.564;7.272;2022-10-30T17:58:09;15.90;99.90
831;DHT22;397;50.564;7.272;2022-10-30T18:00:36;15.80;99.90
831;DHT22;397;50.564;7.272;2022-10-30T18:03:04;15.90;99.90
831;DHT22;397;50.564;7.272;2022-10-30T18:05:33;15.80;99.90
831;DHT22;397;50.564;7.272;2022-10-30T18:08:01;15.80;99.90
831;DHT22;397;50.564;7.272;2022-10-30T18:10:29;15.60;99.90
831;DHT22;397;50.564;7.272;2022-10-30T18:12:57;15.60;99.90
831;DHT22;397;50.564;7.272;2022-10-30T18:15:33;15.70;99.90
831;DHT22;397;50.564;7.272;2022-10-30T18:18:02;15.60;99.90
831;DHT22;397;50.564;7.272;2022-10-30T18:20:30;15.50;99.90
831;DHT22;397;50.564;7.272;2022-10-30T18:22:58;15.40;99.90
831;DHT22;397;50.564;7.272;2022-10-30T18:25:33;15.20;99.90
831;DHT22;397;50.564;7.272;2022-10-30T18:27:56;15.10;99.90
831;DHT22;397;50.564;7.272;2022-10-30T18:30:24;15.10;99.90
831;DHT22;397;50.564;7.272;2022-10-30T18:32:53;15.20;99.90
831;DHT22;397;50.564;7.272;2022-10-30T18:35:33;15.20;99.90
831;DHT22;397;50.564;7.272;2022-10-30T18:38:01;15.20;99.90
831;DHT22;397;50.564;7.272;2022-10-30T18:40:29;15.10;99.90
831;DHT22;397;50.564;7.272;2022-10-30T18:42:57;15.10;99.90
831;DHT22;397;50.564;7.272;2022-10-30T18:45:33;15.20;99.90
831;DHT22;397;50.564;7.272;2022-10-30T18:48:01;15.10;99.90
831;DHT22;397;50.564;7.272;2022-10-30T18:50:29;15.20;99.90
831;DHT22;397;50.564;7.272;2022-10-30T18:52:58;15.10;99.90